sensor_id;sensor_type;location;lat;lon;timestamp;temperature;humidity
75824;DHT22;64457;51.976;9.834;2023-04-03T00:02:20;5.60;84.60
75824;DHT22;64457;51.976;9.834;2023-04-03T00:04:47;5.60;85.50
75824;DHT22;64457;51.976;9.834;2023-04-03T00:07:15;5.60;84.90
75824;DHT22;64457;51.976;9.834;2023-04-03T00:09:44;5.60;83.30
75824;DHT22;64457;51.976;9.834;2023-04-03T00:12:11;5.60;84.10
75824;DHT22;64457;51.976;9.834;2023-04-03T00:14:39;5.50;84.50
75824;DHT22;64457;51.976;9.834;2023-04-03T00:17:10;5.50;84.30
75824;DHT22;64457;51.976;9.834;2023-04-03T00:19:38;5.60;84.10
75824;DHT22;64457;51.976;9.834;2023-04-03T00:22:06;5.60;84.70
75824;DHT22;64457;51.976;9.834;2023-04-03T00:24:41;5.50;83.70
75824;DHT22;64457;51.976;9.834;2023-04-03T00:27:11;5.40;84.80
75824;DHT22;64457;51.976;9.834;2023-04-03T00:29:38;5.40;84.40
75824;DHT22;64457;51.976;9.834;2023-04-03T00:32:05;5.50;84.00
75824;DHT22;64457;51.976;9.834;2023-04-03T00:34:33;5.30;84.30
75824;DHT22;64457;51.976;9.834;2023-04-03T00:37:00;5.30;84.20
75824;DHT22;64457;51.976;9.834;2023-04-03T00:39:28;5.20;84.60
75824;DHT22;64457;51.976;9.834;2023-04-03T00:41:56;5.30;84.90
75824;DHT22;64457;51.976;9.834;2023-04-03T00:47:52;5.40;84.60
75824;DHT22;64457;51.976;9.834;2023-04-03T00:50:20;5.40;85.10
75824;DHT22;64457;51.976;9.834;2023-04-03T00:52:47;5.40;84.40
75824;DHT22;64457;51.976;9.834;2023-04-03T00:55:16;5.40;85.40
75824;DHT22;64457;51.976;9.834;2023-04-03T00:57:44;5.30;85.10
75824;DHT22;64457;51.976;9.834;2023-04-03T01:00:15;5.20;84.30
75824;DHT22;64457;51.976;9.834;2023-04-03T01:02:46;5.00;85.30
75824;DHT22;64457;51.976;9.834;2023-04-03T01:05:16;4.80;86.00
75824;DHT22;64457;51.976;9.834;2023-04-03T01:07:45;4.70;87.60
75824;DHT22;64457;51.976;9.834;2023-04-03T01:10:15;4.80;87.50
75824;DHT22;64457;51.976;9.834;2023-04-03T01:12:47;4.80;87.30
75824;DHT22;64457;51.976;9.834;2023-04-03T01:15:18;4.60;87.00
75824;DHT22;64457;51.976;9.834;2023-04-03T01:17:50;4.60;88.30
75824;DHT22;64457;51.976;9.834;2023-04-03T01:24:07;3.90;90.00
75824;DHT22;64457;51.976;9.834;2023-04-03T01:26:42;4.00;89.50
75824;DHT22;64457;51.976;9.834;2023-04-03T01:29:10;4.00;89.40
75824;DHT22;64457;51.976;9.834;2023-04-03T01:31:55;3.90;89.80
75824;DHT22;64457;51.976;9.834;2023-04-03T01:34:24;3.90;90.00
75824;DHT22;64457;51.976;9.834;2023-04-03T01:36:52;3.90;89.60
75824;DHT22;64457;51.976;9.834;2023-04-03T01:39:20;3.90;89.80
75824;DHT22;64457;51.976;9.834;2023-04-03T01:41:49;4.00;90.00
75824;DHT22;64457;51.976;9.834;2023-04-03T01:44:18;4.00;89.70
75824;DHT22;64457;51.976;9.834;2023-04-03T01:46:46;3.80;90.10
75824;DHT22;64457;51.976;9.834;2023-04-03T01:49:15;3.70;90.10
75824;DHT22;64457;51.976;9.834;2023-04-03T01:51:43;3.80;90.40
75824;DHT22;64457;51.976;9.834;2023-04-03T01:54:13;4.00;90.40
75824;DHT22;64457;51.976;9.834;2023-04-03T01:56:43;4.10;90.00
75824;DHT22;64457;51.976;9.834;2023-04-03T01:59:10;4.20;90.30
75824;DHT22;64457;51.976;9.834;2023-04-03T02:01:38;4.20;89.90
75824;DHT22;64457;51.976;9.834;2023-04-03T02:04:06;4.00;89.50
75824;DHT22;64457;51.976;9.834;2023-04-03T02:06:35;4.00;90.20
75824;DHT22;64457;51.976;9.834;2023-04-03T02:09:03;4.00;90.00
75824;DHT22;64457;51.976;9.834;2023-04-03T02:11:31;3.90;90.00
75824;DHT22;64457;51.976;9.834;2023-04-03T02:13:58;3.70;90.20
75824;DHT22;64457;51.976;9.834;2023-04-03T02:16:26;3.80;90.70
75824;DHT22;64457;51.976;9.834;2023-04-03T02:18:54;3.90;90.20
75824;DHT22;64457;51.976;9.834;2023-04-03T02:21:22;3.90;90.10
75824;DHT22;64457;51.976;9.834;2023-04-03T02:23:52;3.90;90.00
75824;DHT22;64457;51.976;9.834;2023-04-03T02:26:20;3.90;90.30
75824;DHT22;64457;51.976;9.834;2023-04-03T02:28:48;4.00;90.10
75824;DHT22;64457;51.976;9.834;2023-04-03T02:31:15;3.90;90.00
75824;DHT22;64457;51.976;9.834;2023-04-03T02:33:43;3.90;90.20
75824;DHT22;64457;51.976;9.834;2023-04-03T02:36:14;3.90;90.00
75824;DHT22;64457;51.976;9.834;2023-04-03T02:38:42;3.90;90.00
75824;DHT22;64457;51.976;9.834;2023-04-03T02:41:13;3.80;90.00
75824;DHT22;64457;51.976;9.834;2023-04-03T02:43:40;3.60;90.30
75824;DHT22;64457;51.976;9.834;2023-04-03T02:46:08;3.70;90.40
75824;DHT22;64457;51.976;9.834;2023-04-03T02:48:36;3.80;90.40
75824;DHT22;64457;51.976;9.834;2023-04-03T02:51:04;3.90;90.30
75824;DHT22;64457;51.976;9.834;2023-04-03T02:53:32;3.80;90.10
75824;DHT22;64457;51.976;9.834;2023-04-03T02:56:00;3.90;90.30
75824;DHT22;64457;51.976;9.834;2023-04-03T02:58:29;3.90;89.80
75824;DHT22;64457;51.976;9.834;2023-04-03T03:00:57;3.80;90.10
75824;DHT22;64457;51.976;9.834;2023-04-03T03:03:24;3.80;90.00
75824;DHT22;64457;51.976;9.834;2023-04-03T03:06:01;3.70;90.10
75824;DHT22;64457;51.976;9.834;2023-04-03T03:08:29;3.40;90.60
75824;DHT22;64457;51.976;9.834;2023-04-03T03:10:57;3.40;90.80
75824;DHT22;64457;51.976;9.834;2023-04-03T03:13:24;3.40;90.70
75824;DHT22;64457;51.976;9.834;2023-04-03T03:15:54;3.40;90.70
75824;DHT22;64457;51.976;9.834;2023-04-03T03:18:22;3.40;90.70
75824;DHT22;64457;51.976;9.834;2023-04-03T03:20:51;3.50;90.40
75824;DHT22;64457;51.976;9.834;2023-04-03T03:23:19;3.30;90.40
75824;DHT22;64457;51.976;9.834;2023-04-03T03:25:47;3.20;90.70
75824;DHT22;64457;51.976;9.834;2023-04-03T03:28:15;3.20;90.80
75824;DHT22;64457;51.976;9.834;2023-04-03T03:30:42;3.30;91.00
75824;DHT22;64457;51.976;9.834;2023-04-03T03:33:11;3.30;90.90
75824;DHT22;64457;51.976;9.834;2023-04-03T03:35:39;3.10;91.00
75824;DHT22;64457;51.976;9.834;2023-04-03T03:38:07;3.10;90.90
75824;DHT22;64457;51.976;9.834;2023-04-03T03:40:35;3.20;91.00
75824;DHT22;64457;51.976;9.834;2023-04-03T03:43:03;3.10;90.70
75824;DHT22;64457;51.976;9.834;2023-04-03T03:45:31;3.00;91.10
75824;DHT22;64457;51.976;9.834;2023-04-03T03:48:00;2.90;91.30
75824;DHT22;64457;51.976;9.834;2023-04-03T03:50:29;3.00;91.60
75824;DHT22;64457;51.976;9.834;2023-04-03T03:52:56;3.10;91.30
75824;DHT22;64457;51.976;9.834;2023-04-03T03:55:26;3.10;91.20
75824;DHT22;64457;51.976;9.834;2023-04-03T03:57:55;3.20;91.10
75824;DHT22;64457;51.976;9.834;2023-04-03T04:00:23;3.00;90.90
75824;DHT22;64457;51.976;9.834;2023-04-03T04:02:51;2.90;91.10
75824;DHT22;64457;51.976;9.834;2023-04-03T04:05:18;2.90;91.20
75824;DHT22;64457;51.976;9.834;2023-04-03T04:07:47;2.90;91.30
75824;DHT22;64457;51.976;9.834;2023-04-03T04:10:15;2.90;91.40
75824;DHT22;64457;51.976;9.834;2023-04-03T04:12:43;2.80;91.30
75824;DHT22;64457;51.976;9.834;2023-04-03T04:15:11;2.90;91.10
75824;DHT22;64457;51.976;9.834;2023-04-03T04:17:38;2.80;91.80
75824;DHT22;64457;51.976;9.834;2023-04-03T04:20:07;2.80;91.30
75824;DHT22;64457;51.976;9.834;2023-04-03T04:22:34;2.80;91.40
75824;DHT22;64457;51.976;9.834;2023-04-03T04:25:04;2.80;91.30
75824;DHT22;64457;51.976;9.834;2023-04-03T04:27:32;2.80;91.40
75824;DHT22;64457;51.976;9.834;2023-04-03T04:30:00;2.80;91.40
75824;DHT22;64457;51.976;9.834;2023-04-03T04:32:29;2.70;91.50
75824;DHT22;64457;51.976;9.834;2023-04-03T04:34:56;2.70;91.50
75824;DHT22;64457;51.976;9.834;2023-04-03T04:37:24;2.60;91.50
75824;DHT22;64457;51.976;9.834;2023-04-03T04:39:51;2.80;91.90
75824;DHT22;64457;51.976;9.834;2023-04-03T04:42:21;2.90;91.40
75824;DHT22;64457;51.976;9.834;2023-04-03T04:44:48;2.80;91.30
75824;DHT22;64457;51.976;9.834;2023-04-03T04:47:16;2.70;91.20
75824;DHT22;64457;51.976;9.834;2023-04-03T04:49:43;2.70;91.60
75824;DHT22;64457;51.976;9.834;2023-04-03T04:52:13;2.80;91.30
75824;DHT22;64457;51.976;9.834;2023-04-03T04:54:41;2.60;91.50
75824;DHT22;64457;51.976;9.834;2023-04-03T04:57:08;2.50;91.60
75824;DHT22;64457;51.976;9.834;2023-04-03T04:59:39;2.40;91.80
75824;DHT22;64457;51.976;9.834;2023-04-03T05:02:06;2.60;91.90
75824;DHT22;64457;51.976;9.834;2023-04-03T05:04:34;2.60;91.60
75824;DHT22;64457;51.976;9.834;2023-04-03T05:07:02;2.60;91.90
75824;DHT22;64457;51.976;9.834;2023-04-03T05:09:29;2.70;91.90
75824;DHT22;64457;51.976;9.834;2023-04-03T05:11:57;2.60;91.70
75824;DHT22;64457;51.976;9.834;2023-04-03T05:14:25;2.60;91.70
75824;DHT22;64457;51.976;9.834;2023-04-03T05:16:54;2.60;91.70
75824;DHT22;64457;51.976;9.834;2023-04-03T05:19:21;2.80;91.70
75824;DHT22;64457;51.976;9.834;2023-04-03T05:21:49;2.90;91.50
75824;DHT22;64457;51.976;9.834;2023-04-03T05:24:16;3.10;91.40
75824;DHT22;64457;51.976;9.834;2023-04-03T05:26:44;2.90;91.10
75824;DHT22;64457;51.976;9.834;2023-04-03T05:29:15;2.70;91.30
75824;DHT22;64457;51.976;9.834;2023-04-03T05:31:43;2.50;91.50
75824;DHT22;64457;51.976;9.834;2023-04-03T05:34:12;2.50;91.90
75824;DHT22;64457;51.976;9.834;2023-04-03T05:36:39;2.60;92.10
75824;DHT22;64457;51.976;9.834;2023-04-03T05:39:07;2.70;92.00
75824;DHT22;64457;51.976;9.834;2023-04-03T05:41:35;2.90;91.90
75824;DHT22;64457;51.976;9.834;2023-04-03T05:44:03;3.00;91.90
75824;DHT22;64457;51.976;9.834;2023-04-03T05:46:31;3.20;92.00
75824;DHT22;64457;51.976;9.834;2023-04-03T05:48:59;3.40;91.40
75824;DHT22;64457;51.976;9.834;2023-04-03T05:51:31;3.50;91.50
75824;DHT22;64457;51.976;9.834;2023-04-03T05:54:06;3.60;90.90
75824;DHT22;64457;51.976;9.834;2023-04-03T05:56:36;3.60;90.40
75824;DHT22;64457;51.976;9.834;2023-04-03T05:59:04;3.70;89.80
75824;DHT22;64457;51.976;9.834;2023-04-03T06:01:33;3.70;90.00
75824;DHT22;64457;51.976;9.834;2023-04-03T06:04:01;3.80;90.10
75824;DHT22;64457;51.976;9.834;2023-04-03T06:06:46;3.70;90.00
75824;DHT22;64457;51.976;9.834;2023-04-03T06:09:14;3.70;90.30
75824;DHT22;64457;51.976;9.834;2023-04-03T06:11:46;3.70;90.10
75824;DHT22;64457;51.976;9.834;2023-04-03T06:14:15;3.50;90.40
75824;DHT22;64457;51.976;9.834;2023-04-03T06:16:43;3.40;90.40
75824;DHT22;64457;51.976;9.834;2023-04-03T06:19:12;3.50;90.50
75824;DHT22;64457;51.976;9.834;2023-04-03T06:21:40;3.90;90.90
75824;DHT22;64457;51.976;9.834;2023-04-03T06:24:10;5.30;90.60
75824;DHT22;64457;51.976;9.834;2023-04-03T06:26:41;7.20;85.70
75824;DHT22;64457;51.976;9.834;2023-04-03T06:29:09;9.10;81.90
75824;DHT22;64457;51.976;9.834;2023-04-03T06:31:36;10.90;74.90
75824;DHT22;64457;51.976;9.834;2023-04-03T06:34:05;11.60;70.60
75824;DHT22;64457;51.976;9.834;2023-04-03T06:36:33;11.80;68.70
75824;DHT22;64457;51.976;9.834;2023-04-03T06:39:00;11.70;66.70
75824;DHT22;64457;51.976;9.834;2023-04-03T06:41:30;12.10;67.10
75824;DHT22;64457;51.976;9.834;2023-04-03T06:43:58;13.30;65.10
75824;DHT22;64457;51.976;9.834;2023-04-03T06:46:29;14.10;63.30
75824;DHT22;64457;51.976;9.834;2023-04-03T06:48:56;14.70;60.90
75824;DHT22;64457;51.976;9.834;2023-04-03T06:51:25;15.50;59.50
75824;DHT22;64457;51.976;9.834;2023-04-03T06:53:55;15.90;58.30
75824;DHT22;64457;51.976;9.834;2023-04-03T06:56:24;16.00;58.10
75824;DHT22;64457;51.976;9.834;2023-04-03T06:58:55;15.40;56.70
75824;DHT22;64457;51.976;9.834;2023-04-03T07:01:24;14.10;58.20
75824;DHT22;64457;51.976;9.834;2023-04-03T07:03:53;14.40;59.40
75824;DHT22;64457;51.976;9.834;2023-04-03T07:06:21;15.20;57.30
75824;DHT22;64457;51.976;9.834;2023-04-03T07:08:52;15.40;56.10
75824;DHT22;64457;51.976;9.834;2023-04-03T07:11:20;15.50;56.10
75824;DHT22;64457;51.976;9.834;2023-04-03T07:13:48;15.30;56.60
75824;DHT22;64457;51.976;9.834;2023-04-03T07:16:17;15.00;56.40
75824;DHT22;64457;51.976;9.834;2023-04-03T07:18:45;14.10;57.70
75824;DHT22;64457;51.976;9.834;2023-04-03T07:21:16;13.10;58.80
75824;DHT22;64457;51.976;9.834;2023-04-03T07:23:45;11.80;61.40
75824;DHT22;64457;51.976;9.834;2023-04-03T07:26:15;11.30;63.60
75824;DHT22;64457;51.976;9.834;2023-04-03T07:28:43;11.10;63.30
75824;DHT22;64457;51.976;9.834;2023-04-03T07:31:17;11.20;65.70
75824;DHT22;64457;51.976;9.834;2023-04-03T07:33:45;13.20;62.90
75824;DHT22;64457;51.976;9.834;2023-04-03T07:36:16;15.50;60.30
75824;DHT22;64457;51.976;9.834;2023-04-03T07:38:45;17.60;59.00
75824;DHT22;64457;51.976;9.834;2023-04-03T07:41:15;18.50;54.10
75824;DHT22;64457;51.976;9.834;2023-04-03T07:43:44;17.90;53.00
75824;DHT22;64457;51.976;9.834;2023-04-03T07:46:12;18.20;54.60
75824;DHT22;64457;51.976;9.834;2023-04-03T07:48:41;19.00;54.00
75824;DHT22;64457;51.976;9.834;2023-04-03T07:51:10;19.90;53.30
75824;DHT22;64457;51.976;9.834;2023-04-03T07:53:38;20.00;48.90
75824;DHT22;64457;51.976;9.834;2023-04-03T07:56:06;20.40;51.50
75824;DHT22;64457;51.976;9.834;2023-04-03T07:58:35;20.20;50.60
75824;DHT22;64457;51.976;9.834;2023-04-03T08:01:04;21.10;48.10
75824;DHT22;64457;51.976;9.834;2023-04-03T08:03:32;21.10;46.50
75824;DHT22;64457;51.976;9.834;2023-04-03T08:06:06;20.90;48.60
75824;DHT22;64457;51.976;9.834;2023-04-03T08:08:34;21.10;47.80
75824;DHT22;64457;51.976;9.834;2023-04-03T08:11:03;20.50;48.20
75824;DHT22;64457;51.976;9.834;2023-04-03T08:13:32;19.70;47.10
75824;DHT22;64457;51.976;9.834;2023-04-03T08:16:08;19.70;47.90
75824;DHT22;64457;51.976;9.834;2023-04-03T08:18:38;19.00;49.50
75824;DHT22;64457;51.976;9.834;2023-04-03T08:21:09;20.50;50.90
75824;DHT22;64457;51.976;9.834;2023-04-03T08:23:38;21.70;46.60
75824;DHT22;64457;51.976;9.834;2023-04-03T08:26:09;20.60;45.70
75824;DHT22;64457;51.976;9.834;2023-04-03T08:28:38;20.50;49.20
75824;DHT22;64457;51.976;9.834;2023-04-03T08:31:08;21.00;48.50
75824;DHT22;64457;51.976;9.834;2023-04-03T08:33:41;21.40;47.10
75824;DHT22;64457;51.976;9.834;2023-04-03T08:36:18;21.60;45.60
75824;DHT22;64457;51.976;9.834;2023-04-03T08:38:49;21.20;45.70
75824;DHT22;64457;51.976;9.834;2023-04-03T08:41:22;20.50;45.20
75824;DHT22;64457;51.976;9.834;2023-04-03T08:44:05;20.60;45.00
75824;DHT22;64457;51.976;9.834;2023-04-03T08:46:47;20.80;48.60
75824;DHT22;64457;51.976;9.834;2023-04-03T08:49:28;20.90;45.60
75824;DHT22;64457;51.976;9.834;2023-04-03T08:52:02;21.70;46.50
75824;DHT22;64457;51.976;9.834;2023-04-03T08:54:34;20.80;48.70
75824;DHT22;64457;51.976;9.834;2023-04-03T08:57:05;21.20;47.70
75824;DHT22;64457;51.976;9.834;2023-04-03T08:59:35;21.20;46.10
75824;DHT22;64457;51.976;9.834;2023-04-03T09:02:26;18.10;44.50
75824;DHT22;64457;51.976;9.834;2023-04-03T09:04:56;15.60;51.30
75824;DHT22;64457;51.976;9.834;2023-04-03T09:07:35;15.80;54.50
75824;DHT22;64457;51.976;9.834;2023-04-03T09:10:11;17.10;53.60
75824;DHT22;64457;51.976;9.834;2023-04-03T09:12:43;18.70;49.90
75824;DHT22;64457;51.976;9.834;2023-04-03T09:15:18;19.60;47.30
75824;DHT22;64457;51.976;9.834;2023-04-03T09:17:55;17.60;50.00
75824;DHT22;64457;51.976;9.834;2023-04-03T09:20:38;18.70;49.40
75824;DHT22;64457;51.976;9.834;2023-04-03T09:23:29;18.70;45.70
75824;DHT22;64457;51.976;9.834;2023-04-03T09:26:02;17.90;48.50
75824;DHT22;64457;51.976;9.834;2023-04-03T09:28:37;16.30;47.20
75824;DHT22;64457;51.976;9.834;2023-04-03T09:31:16;14.60;50.90
75824;DHT22;64457;51.976;9.834;2023-04-03T09:33:48;14.50;52.00
75824;DHT22;64457;51.976;9.834;2023-04-03T09:36:39;13.70;51.60
75824;DHT22;64457;51.976;9.834;2023-04-03T09:39:15;13.50;54.90
75824;DHT22;64457;51.976;9.834;2023-04-03T09:41:56;14.30;53.50
75824;DHT22;64457;51.976;9.834;2023-04-03T09:44:26;15.30;51.70
75824;DHT22;64457;51.976;9.834;2023-04-03T09:46:57;16.20;51.70
75824;DHT22;64457;51.976;9.834;2023-04-03T09:49:25;16.10;50.00
75824;DHT22;64457;51.976;9.834;2023-04-03T09:51:53;15.20;51.80
75824;DHT22;64457;51.976;9.834;2023-04-03T09:54:31;15.50;51.90
75824;DHT22;64457;51.976;9.834;2023-04-03T09:57:06;16.20;51.00
75824;DHT22;64457;51.976;9.834;2023-04-03T09:59:47;16.50;46.40
75824;DHT22;64457;51.976;9.834;2023-04-03T10:02:35;16.80;48.90
75824;DHT22;64457;51.976;9.834;2023-04-03T10:05:04;18.00;46.60
75824;DHT22;64457;51.976;9.834;2023-04-03T10:07:35;18.50;47.20
75824;DHT22;64457;51.976;9.834;2023-04-03T10:10:18;17.70;44.90
75824;DHT22;64457;51.976;9.834;2023-04-03T10:12:48;16.20;45.50
75824;DHT22;64457;51.976;9.834;2023-04-03T10:15:18;14.20;50.00
75824;DHT22;64457;51.976;9.834;2023-04-03T10:17:55;13.90;50.70
75824;DHT22;64457;51.976;9.834;2023-04-03T10:20:33;13.10;49.70
75824;DHT22;64457;51.976;9.834;2023-04-03T10:23:15;11.70;49.90
75824;DHT22;64457;51.976;9.834;2023-04-03T10:25:57;11.00;53.50
75824;DHT22;64457;51.976;9.834;2023-04-03T10:28:36;10.50;53.80
75824;DHT22;64457;51.976;9.834;2023-04-03T10:31:14;10.30;53.10
75824;DHT22;64457;51.976;9.834;2023-04-03T10:33:55;10.20;54.90
75824;DHT22;64457;51.976;9.834;2023-04-03T10:36:36;10.00;53.20
75824;DHT22;64457;51.976;9.834;2023-04-03T10:39:18;9.60;56.00
75824;DHT22;64457;51.976;9.834;2023-04-03T10:41:59;9.50;55.50
75824;DHT22;64457;51.976;9.834;2023-04-03T10:44:36;9.60;57.20
75824;DHT22;64457;51.976;9.834;2023-04-03T10:47:13;9.80;56.70
75824;DHT22;64457;51.976;9.834;2023-04-03T10:49:51;9.70;55.70
75824;DHT22;64457;51.976;9.834;2023-04-03T10:52:30;9.50;55.50
75824;DHT22;64457;51.976;9.834;2023-04-03T10:55:13;9.60;55.90
75824;DHT22;64457;51.976;9.834;2023-04-03T10:57:53;9.80;57.40
75824;DHT22;64457;51.976;9.834;2023-04-03T11:00:25;9.60;55.30
75824;DHT22;64457;51.976;9.834;2023-04-03T11:03:06;9.70;55.80
75824;DHT22;64457;51.976;9.834;2023-04-03T11:05:41;10.00;54.60
75824;DHT22;64457;51.976;9.834;2023-04-03T11:08:18;10.00;54.60
75824;DHT22;64457;51.976;9.834;2023-04-03T11:10:54;10.20;56.40
75824;DHT22;64457;51.976;9.834;2023-04-03T11:13:27;10.80;55.80
75824;DHT22;64457;51.976;9.834;2023-04-03T11:15:59;11.30;54.80
75824;DHT22;64457;51.976;9.834;2023-04-03T11:18:34;11.40;54.80
75824;DHT22;64457;51.976;9.834;2023-04-03T11:21:11;11.00;52.80
75824;DHT22;64457;51.976;9.834;2023-04-03T11:23:41;10.70;56.10
75824;DHT22;64457;51.976;9.834;2023-04-03T11:26:11;11.70;56.30
75824;DHT22;64457;51.976;9.834;2023-04-03T11:28:41;12.60;50.90
75824;DHT22;64457;51.976;9.834;2023-04-03T11:31:20;12.90;52.20
75824;DHT22;64457;51.976;9.834;2023-04-03T11:34:00;13.10;51.40
75824;DHT22;64457;51.976;9.834;2023-04-03T11:36:39;12.80;49.50
75824;DHT22;64457;51.976;9.834;2023-04-03T11:39:18;12.20;50.30
75824;DHT22;64457;51.976;9.834;2023-04-03T11:41:51;12.10;53.50
75824;DHT22;64457;51.976;9.834;2023-04-03T11:44:35;13.00;53.20
75824;DHT22;64457;51.976;9.834;2023-04-03T11:47:05;13.20;52.30
75824;DHT22;64457;51.976;9.834;2023-04-03T11:49:55;12.90;51.50
75824;DHT22;64457;51.976;9.834;2023-04-03T11:53:00;12.70;50.70
75824;DHT22;64457;51.976;9.834;2023-04-03T11:55:52;12.00;52.40
75824;DHT22;64457;51.976;9.834;2023-04-03T11:58:23;11.70;52.50
75824;DHT22;64457;51.976;9.834;2023-04-03T12:00:58;11.30;54.10
75824;DHT22;64457;51.976;9.834;2023-04-03T12:04:05;11.00;52.10
75824;DHT22;64457;51.976;9.834;2023-04-03T12:06:58;10.90;53.20
75824;DHT22;64457;51.976;9.834;2023-04-03T12:10:02;10.90;52.90
75824;DHT22;64457;51.976;9.834;2023-04-03T12:12:57;11.20;52.40
75824;DHT22;64457;51.976;9.834;2023-04-03T12:15:52;11.40;53.30
75824;DHT22;64457;51.976;9.834;2023-04-03T12:18:58;11.80;54.00
75824;DHT22;64457;51.976;9.834;2023-04-03T12:22:10;11.90;53.30
75824;DHT22;64457;51.976;9.834;2023-04-03T12:24:45;12.10;51.20
75824;DHT22;64457;51.976;9.834;2023-04-03T12:27:22;11.80;53.70
75824;DHT22;64457;51.976;9.834;2023-04-03T12:30:03;12.00;51.40
75824;DHT22;64457;51.976;9.834;2023-04-03T12:32:46;12.30;53.00
75824;DHT22;64457;51.976;9.834;2023-04-03T12:35:26;12.70;53.00
75824;DHT22;64457;51.976;9.834;2023-04-03T12:41:33;12.70;51.00
75824;DHT22;64457;51.976;9.834;2023-04-03T12:44:20;11.30;49.60
75824;DHT22;64457;51.976;9.834;2023-04-03T12:47:01;11.10;53.00
75824;DHT22;64457;51.976;9.834;2023-04-03T12:49:38;10.90;54.10
75824;DHT22;64457;51.976;9.834;2023-04-03T12:52:19;11.00;53.30
75824;DHT22;64457;51.976;9.834;2023-04-03T12:54:51;11.30;52.90
75824;DHT22;64457;51.976;9.834;2023-04-03T12:57:20;11.60;52.50
75824;DHT22;64457;51.976;9.834;2023-04-03T12:59:49;11.80;52.60
75824;DHT22;64457;51.976;9.834;2023-04-03T13:02:22;12.40;52.90
75824;DHT22;64457;51.976;9.834;2023-04-03T13:04:52;12.60;50.80
75824;DHT22;64457;51.976;9.834;2023-04-03T13:07:25;12.50;48.60
75824;DHT22;64457;51.976;9.834;2023-04-03T13:10:04;12.20;50.20
75824;DHT22;64457;51.976;9.834;2023-04-03T13:12:49;12.20;51.90
75824;DHT22;64457;51.976;9.834;2023-04-03T13:15:21;12.30;50.20
75824;DHT22;64457;51.976;9.834;2023-04-03T13:17:52;12.40;49.70
75824;DHT22;64457;51.976;9.834;2023-04-03T13:20:24;12.30;49.50
75824;DHT22;64457;51.976;9.834;2023-04-03T13:23:01;12.50;53.10
75824;DHT22;64457;51.976;9.834;2023-04-03T13:25:33;12.50;51.40
75824;DHT22;64457;51.976;9.834;2023-04-03T13:28:06;12.70;50.50
75824;DHT22;64457;51.976;9.834;2023-04-03T13:30:37;13.40;52.40
75824;DHT22;64457;51.976;9.834;2023-04-03T13:33:20;13.40;47.90
75824;DHT22;64457;51.976;9.834;2023-04-03T13:35:56;13.60;50.60
75824;DHT22;64457;51.976;9.834;2023-04-03T13:38:28;13.10;47.80
75824;DHT22;64457;51.976;9.834;2023-04-03T13:41:01;13.00;50.30
75824;DHT22;64457;51.976;9.834;2023-04-03T13:43:32;13.20;49.90
75824;DHT22;64457;51.976;9.834;2023-04-03T13:46:20;13.10;49.10
75824;DHT22;64457;51.976;9.834;2023-04-03T13:48:53;12.20;49.40
75824;DHT22;64457;51.976;9.834;2023-04-03T13:51:23;11.90;51.20
75824;DHT22;64457;51.976;9.834;2023-04-03T13:53:56;11.90;50.90
75824;DHT22;64457;51.976;9.834;2023-04-03T13:56:29;11.50;51.80
75824;DHT22;64457;51.976;9.834;2023-04-03T13:59:05;11.30;53.60
75824;DHT22;64457;51.976;9.834;2023-04-03T14:01:51;10.90;53.00
75824;DHT22;64457;51.976;9.834;2023-04-03T14:04:22;11.30;55.70
75824;DHT22;64457;51.976;9.834;2023-04-03T14:06:50;12.10;54.00
75824;DHT22;64457;51.976;9.834;2023-04-03T14:09:21;11.90;52.30
75824;DHT22;64457;51.976;9.834;2023-04-03T14:11:52;11.30;52.50
75824;DHT22;64457;51.976;9.834;2023-04-03T14:14:24;10.80;52.20
75824;DHT22;64457;51.976;9.834;2023-04-03T14:16:56;10.70;51.90
75824;DHT22;64457;51.976;9.834;2023-04-03T14:19:27;11.00;51.60
75824;DHT22;64457;51.976;9.834;2023-04-03T14:21:56;11.80;54.50
75824;DHT22;64457;51.976;9.834;2023-04-03T14:24:28;12.70;52.50
75824;DHT22;64457;51.976;9.834;2023-04-03T14:26:57;13.10;50.80
75824;DHT22;64457;51.976;9.834;2023-04-03T14:29:25;12.60;50.60
75824;DHT22;64457;51.976;9.834;2023-04-03T14:31:52;12.10;51.10
75824;DHT22;64457;51.976;9.834;2023-04-03T14:34:20;12.00;52.60
75824;DHT22;64457;51.976;9.834;2023-04-03T14:36:49;12.10;52.00
75824;DHT22;64457;51.976;9.834;2023-04-03T14:39:21;12.00;53.10
75824;DHT22;64457;51.976;9.834;2023-04-03T14:41:50;12.10;52.10
75824;DHT22;64457;51.976;9.834;2023-04-03T14:44:19;12.00;51.10
75824;DHT22;64457;51.976;9.834;2023-04-03T14:46:48;12.10;52.90
75824;DHT22;64457;51.976;9.834;2023-04-03T14:49:19;11.80;53.00
75824;DHT22;64457;51.976;9.834;2023-04-03T14:51:48;11.90;52.90
75824;DHT22;64457;51.976;9.834;2023-04-03T14:54:18;11.90;51.80
75824;DHT22;64457;51.976;9.834;2023-04-03T14:56:53;11.70;51.60
75824;DHT22;64457;51.976;9.834;2023-04-03T14:59:22;11.20;50.20
75824;DHT22;64457;51.976;9.834;2023-04-03T15:01:50;11.10;51.50
75824;DHT22;64457;51.976;9.834;2023-04-03T15:04:19;11.10;52.30
75824;DHT22;64457;51.976;9.834;2023-04-03T15:06:48;11.40;52.80
75824;DHT22;64457;51.976;9.834;2023-04-03T15:09:22;11.50;49.60
75824;DHT22;64457;51.976;9.834;2023-04-03T15:11:53;11.80;50.50
75824;DHT22;64457;51.976;9.834;2023-04-03T15:14:22;12.20;50.70
75824;DHT22;64457;51.976;9.834;2023-04-03T15:16:50;12.60;51.50
75824;DHT22;64457;51.976;9.834;2023-04-03T15:19:18;12.70;49.00
75824;DHT22;64457;51.976;9.834;2023-04-03T15:21:46;12.70;51.30
75824;DHT22;64457;51.976;9.834;2023-04-03T15:24:14;12.90;49.60
75824;DHT22;64457;51.976;9.834;2023-04-03T15:26:42;12.70;49.20
75824;DHT22;64457;51.976;9.834;2023-04-03T15:29:12;12.20;50.50
75824;DHT22;64457;51.976;9.834;2023-04-03T15:31:39;11.60;49.10
75824;DHT22;64457;51.976;9.834;2023-04-03T15:34:07;11.40;52.20
75824;DHT22;64457;51.976;9.834;2023-04-03T15:36:35;11.40;52.60
75824;DHT22;64457;51.976;9.834;2023-04-03T15:39:04;11.50;52.30
75824;DHT22;64457;51.976;9.834;2023-04-03T15:41:31;11.50;48.70
75824;DHT22;64457;51.976;9.834;2023-04-03T15:44:00;11.80;50.90
75824;DHT22;64457;51.976;9.834;2023-04-03T15:46:29;12.20;52.70
75824;DHT22;64457;51.976;9.834;2023-04-03T15:48:57;12.10;51.70
75824;DHT22;64457;51.976;9.834;2023-04-03T15:51:25;11.90;49.60
75824;DHT22;64457;51.976;9.834;2023-04-03T15:53:53;11.50;49.80
75824;DHT22;64457;51.976;9.834;2023-04-03T15:56:21;11.20;50.80
75824;DHT22;64457;51.976;9.834;2023-04-03T15:58:48;10.60;51.50
75824;DHT22;64457;51.976;9.834;2023-04-03T16:01:16;10.60;52.30
75824;DHT22;64457;51.976;9.834;2023-04-03T16:03:45;10.50;53.60
75824;DHT22;64457;51.976;9.834;2023-04-03T16:06:13;10.30;50.50
75824;DHT22;64457;51.976;9.834;2023-04-03T16:08:43;9.90;53.10
75824;DHT22;64457;51.976;9.834;2023-04-03T16:11:10;9.70;53.30
75824;DHT22;64457;51.976;9.834;2023-04-03T16:13:38;10.10;53.20
75824;DHT22;64457;51.976;9.834;2023-04-03T16:16:06;10.40;52.70
75824;DHT22;64457;51.976;9.834;2023-04-03T16:18:35;10.60;52.40